Time;durP1;ratioP1;P1;durP2;ratioP2;P2;SDS_P1;SDS_P2;PMS_P1;PMS_P2;Temp;Humidity;BMP_temperature;BMP_pressure;BME280_temperature;BME280_humidity;BME280_pressure;Samples;Min_cycle;Max_cycle;Signal;HPM_P1;HPM_P2
2023/05/10 00:00:42;;;;;;;16.33;14.75;;;12.60;99.90;;;;;;5035099;28;20508;-42
2023/05/10 00:03:07;;;;;;;17.38;15.55;;;12.60;99.90;;;;;;5037207;28;20478;-41
2023/05/10 00:05:33;;;;;;;14.15;12.65;;;12.60;99.90;;;;;;5037543;28;20036;-42
2023/05/10 00:07:59;;;;;;;14.13;12.77;;;12.60;99.90;;;;;;5038564;28;20091;-36
2023/05/10 00:10:24;;;;;;;12.70;11.38;;;12.60;99.90;;;;;;5038193;28;20152;-40
2023/05/10 00:12:50;;;;;;;12.13;10.90;;;12.60;99.90;;;;;;5038686;28;20315;-41
2023/05/10 00:15:16;;;;;;;12.10;10.98;;;12.50;99.90;;;;;;5019684;28;20143;-42
2023/05/10 00:17:41;;;;;;;12.18;10.98;;;12.50;99.90;;;;;;5038572;28;20517;-41
2023/05/10 00:20:07;;;;;;;12.85;11.65;;;12.50;99.90;;;;;;5036273;28;20460;-42
2023/05/10 00:22:33;;;;;;;13.65;12.30;;;12.50;99.90;;;;;;5037841;28;20501;-45
2023/05/10 00:24:59;;;;;;;13.00;11.73;;;12.50;99.90;;;;;;5037075;28;20045;-45
2023/05/10 00:27:24;;;;;;;12.63;11.43;;;12.50;99.90;;;;;;5038514;28;20495;-38
2023/05/10 00:29:50;;;;;;;12.80;11.30;;;12.50;99.90;;;;;;5038108;28;20242;-40
2023/05/10 00:32:16;;;;;;;12.73;11.45;;;12.50;99.90;;;;;;5037803;28;20550;-46
2023/05/10 00:34:42;;;;;;;14.25;12.85;;;12.50;99.90;;;;;;5036242;28;20447;-41
2023/05/10 00:37:08;;;;;;;13.68;12.27;;;12.50;99.90;;;;;;5037987;28;20041;-41
2023/05/10 00:39:33;;;;;;;13.52;12.18;;;12.50;99.90;;;;;;5038028;28;20478;-42
2023/05/10 00:42:00;;;;;;;15.13;13.70;;;12.50;99.90;;;;;;5038513;28;20468;-43
2023/05/10 00:44:25;;;;;;;16.38;14.68;;;12.50;99.90;;;;;;5036186;28;20443;-41
2023/05/10 00:46:52;;;;;;;14.50;12.82;;;12.50;99.90;;;;;;5038427;28;20057;-42
2023/05/10 00:49:18;;;;;;;17.95;15.30;;;12.50;99.90;;;;;;5038240;28;20040;-44
2023/05/10 00:51:44;;;;;;;17.15;15.40;;;12.50;99.90;;;;;;5020531;28;20053;-46
2023/05/10 00:54:15;;;;;;;16.80;15.07;;;12.50;99.90;;;;;;5036909;28;20251;-37
2023/05/10 00:56:41;;;;;;;17.33;15.23;;;12.50;99.90;;;;;;5038366;28;20120;-45
2023/05/10 00:59:08;;;;;;;20.60;17.35;;;12.50;99.90;;;;;;5037844;28;20109;-45
2023/05/10 01:01:35;;;;;;;22.08;17.77;;;12.50;99.90;;;;;;5037997;28;20428;-41
2023/05/10 01:04:01;;;;;;;22.05;18.10;;;12.50;99.90;;;;;;5035530;28;20478;-45
2023/05/10 01:06:28;;;;;;;20.90;17.58;;;12.50;99.90;;;;;;5037424;28;20128;-41
2023/05/10 01:08:54;;;;;;;19.08;17.10;;;12.50;99.90;;;;;;5036959;28;20041;-42
2023/05/10 01:11:20;;;;;;;21.35;17.15;;;12.40;99.90;;;;;;5036822;28;20071;-40
2023/05/10 01:13:53;;;;;;;21.85;17.58;;;12.40;99.90;;;;;;5036611;28;20129;-47
2023/05/10 01:16:19;;;;;;;18.00;16.13;;;12.40;99.90;;;;;;5037708;28;20049;-38
2023/05/10 01:18:45;;;;;;;19.77;17.60;;;12.40;99.90;;;;;;5037649;28;20059;-43
2023/05/10 01:21:28;;;;;;;18.08;15.15;;;12.40;99.90;;;;;;5038158;28;20045;-38
2023/05/10 01:24:00;;;;;;;17.50;15.38;;;12.40;99.90;;;;;;5037622;28;20131;-41
2023/05/10 01:27:03;;;;;;;18.02;15.00;;;12.40;99.90;;;;;;5019158;28;20107;-43
2023/05/10 01:29:46;;;;;;;18.75;15.18;;;12.40;99.90;;;;;;5036308;28;20595;-38
2023/05/10 01:32:32;;;;;;;18.90;14.23;;;12.30;99.90;;;;;;5026483;28;20044;-40
2023/05/10 01:35:03;;;;;;;19.55;14.77;;;12.40;99.90;;;;;;5034227;28;20049;-38
2023/05/10 01:37:50;;;;;;;15.68;13.88;;;12.40;99.90;;;;;;5037455;28;20049;-41
2023/05/10 01:40:40;;;;;;;17.63;13.00;;;12.30;99.90;;;;;;5019223;28;20142;-45
2023/05/10 01:43:12;;;;;;;15.52;13.60;;;12.30;99.90;;;;;;5034095;28;20053;-46
2023/05/10 01:45:57;;;;;;;20.00;13.40;;;12.30;99.90;;;;;;5035883;28;20486;-37
2023/05/10 01:48:26;;;;;;;21.38;14.40;;;12.30;99.90;;;;;;5036723;28;20102;-40
2023/05/10 01:50:53;;;;;;;19.90;14.45;;;12.20;99.90;;;;;;5036788;28;20388;-40
2023/05/10 01:53:21;;;;;;;20.05;14.38;;;12.30;99.90;;;;;;5036609;28;20053;-46
2023/05/10 01:55:48;;;;;;;16.92;13.20;;;12.30;99.90;;;;;;5035400;28;20099;-43
2023/05/10 01:58:20;;;;;;;18.70;14.07;;;12.30;99.90;;;;;;5038007;28;20053;-43
2023/05/10 02:00:48;;;;;;;16.13;13.88;;;12.30;99.90;;;;;;5032475;28;20048;-44
2023/05/10 02:03:15;;;;;;;18.63;13.38;;;12.30;99.90;;;;;;5035304;28;20087;-44
2023/05/10 02:05:44;;;;;;;17.25;13.73;;;12.30;99.90;;;;;;5034689;28;20405;-45
2023/05/10 02:08:11;;;;;;;17.02;13.43;;;12.30;99.90;;;;;;5036146;28;20036;-37
2023/05/10 02:10:39;;;;;;;17.75;13.45;;;12.30;99.90;;;;;;5036524;28;20040;-45
2023/05/10 02:13:07;;;;;;;15.43;13.02;;;12.30;99.90;;;;;;5035813;28;20053;-39
2023/05/10 02:15:34;;;;;;;15.10;11.82;;;12.20;99.90;;;;;;5034782;28;20056;-46
2023/05/10 02:18:03;;;;;;;14.27;11.88;;;12.30;99.90;;;;;;5036437;28;20482;-39
2023/05/10 02:20:32;;;;;;;16.83;12.63;;;12.30;99.90;;;;;;5036976;28;20092;-43
2023/05/10 02:22:58;;;;;;;13.77;12.23;;;12.30;99.90;;;;;;5036834;28;20041;-42
2023/05/10 02:25:25;;;;;;;13.07;11.65;;;12.30;99.90;;;;;;5035142;28;20041;-43
2023/05/10 02:27:55;;;;;;;13.38;11.82;;;12.30;99.90;;;;;;5034690;28;20566;-40
2023/05/10 02:30:22;;;;;;;13.27;11.80;;;12.30;99.90;;;;;;5036375;28;20044;-42
2023/05/10 02:32:49;;;;;;;13.35;11.93;;;12.20;99.90;;;;;;5018522;28;20859;-40
2023/05/10 02:35:16;;;;;;;13.60;12.20;;;12.20;99.90;;;;;;5017527;28;20076;-38
2023/05/10 02:37:42;;;;;;;13.30;11.93;;;12.30;99.90;;;;;;5036169;28;20146;-38
2023/05/10 02:40:09;;;;;;;12.60;11.38;;;12.30;99.90;;;;;;5017760;28;20163;-39
2023/05/10 02:42:37;;;;;;;11.68;10.48;;;12.30;99.90;;;;;;5035629;28;20108;-40
2023/05/10 02:45:08;;;;;;;12.95;11.23;;;12.20;99.90;;;;;;5035335;28;20462;-40
2023/05/10 02:47:34;;;;;;;12.43;11.02;;;12.20;99.90;;;;;;5036346;28;20491;-44
2023/05/10 02:50:00;;;;;;;11.90;10.45;;;12.30;99.90;;;;;;5036475;28;20045;-43
2023/05/10 02:52:29;;;;;;;11.38;10.38;;;12.30;99.90;;;;;;5018510;28;20482;-44
2023/05/10 02:55:02;;;;;;;12.35;11.07;;;12.30;99.90;;;;;;5035223;28;20036;-38
2023/05/10 02:57:34;;;;;;;11.85;10.65;;;12.30;99.90;;;;;;5018362;28;20174;-40
2023/05/10 03:00:03;;;;;;;10.98;9.98;;;12.30;99.90;;;;;;5036469;28;20102;-45
2023/05/10 03:02:30;;;;;;;11.43;10.32;;;12.30;99.90;;;;;;5035920;28;20398;-36
2023/05/10 03:04:56;;;;;;;11.52;10.52;;;12.30;99.90;;;;;;5016811;28;20041;-45
2023/05/10 03:07:22;;;;;;;11.50;9.88;;;12.30;99.90;;;;;;5034487;28;20196;-42
2023/05/10 03:09:49;;;;;;;12.95;11.75;;;12.30;99.90;;;;;;5035194;28;20107;-45
2023/05/10 03:12:29;;;;;;;12.90;11.70;;;12.30;99.90;;;;;;5035468;28;20040;-37
2023/05/10 03:15:13;;;;;;;12.18;11.00;;;12.30;99.90;;;;;;5033391;28;20047;-45
2023/05/10 03:18:01;;;;;;;13.30;12.07;;;12.30;99.90;;;;;;5035779;28;20495;-37
2023/05/10 03:20:32;;;;;;;12.25;11.18;;;12.30;99.90;;;;;;5036155;28;20058;-42
2023/05/10 03:23:08;;;;;;;13.82;12.63;;;12.30;99.90;;;;;;5035380;28;20045;-43
2023/05/10 03:25:34;;;;;;;13.05;11.85;;;12.30;99.90;;;;;;5023309;28;20041;-39
2023/05/10 03:28:01;;;;;;;14.05;12.68;;;12.30;99.90;;;;;;5036259;28;20094;-44
2023/05/10 03:30:28;;;;;;;13.60;12.30;;;12.20;99.90;;;;;;5035986;28;20217;-43
2023/05/10 03:32:54;;;;;;;13.70;12.40;;;12.30;99.90;;;;;;5034390;28;20094;-46
2023/05/10 03:35:19;;;;;;;13.90;12.60;;;12.30;99.90;;;;;;5034383;28;20045;-42
2023/05/10 03:37:45;;;;;;;14.07;12.88;;;12.30;99.90;;;;;;5035135;28;20130;-43
2023/05/10 03:40:11;;;;;;;12.48;11.40;;;12.30;99.90;;;;;;5034865;28;20083;-46
2023/05/10 03:42:37;;;;;;;12.73;11.70;;;12.20;99.90;;;;;;5035123;28;20048;-46
2023/05/10 03:45:02;;;;;;;13.15;12.02;;;12.30;99.90;;;;;;5033920;28;20036;-44
2023/05/10 03:47:29;;;;;;;13.50;12.38;;;12.20;99.90;;;;;;5035853;28;20056;-42
2023/05/10 03:49:55;;;;;;;13.02;11.73;;;12.30;99.90;;;;;;5035972;28;20546;-42
2023/05/10 03:52:21;;;;;;;12.38;11.10;;;12.30;99.90;;;;;;5017512;28;20045;-39
2023/05/10 03:54:46;;;;;;;11.75;10.65;;;12.30;99.90;;;;;;5033754;28;20052;-38
2023/05/10 03:57:12;;;;;;;11.90;10.80;;;12.30;99.90;;;;;;5017038;28;20049;-43
2023/05/10 03:59:37;;;;;;;10.02;9.23;;;12.30;99.90;;;;;;5034456;28;20041;-40
2023/05/10 04:02:03;;;;;;;9.68;8.75;;;12.30;99.90;;;;;;5032411;28;20087;-47
2023/05/10 04:04:29;;;;;;;10.70;9.88;;;12.30;99.90;;;;;;5034108;28;20041;-42
2023/05/10 04:06:55;;;;;;;11.02;10.02;;;12.30;99.90;;;;;;5033267;28;20068;-40
2023/05/10 04:09:20;;;;;;;12.57;11.52;;;12.30;99.90;;;;;;5035775;28;20045;-46
2023/05/10 04:11:46;;;;;;;11.15;9.60;;;12.30;99.90;;;;;;5017318;28;20064;-41
2023/05/10 04:14:11;;;;;;;11.38;10.38;;;12.30;99.90;;;;;;5034121;28;20044;-37
2023/05/10 04:16:37;;;;;;;10.65;9.73;;;12.30;99.90;;;;;;5016745;28;20041;-46
2023/05/10 04:19:03;;;;;;;11.23;10.13;;;12.30;99.90;;;;;;5034211;28;20091;-42
2023/05/10 04:21:29;;;;;;;12.07;10.98;;;12.30;99.90;;;;;;5039000;28;20056;-39
2023/05/10 04:23:54;;;;;;;11.43;10.43;;;12.30;99.90;;;;;;5036861;28;20049;-43
2023/05/10 04:26:20;;;;;;;11.50;10.45;;;12.30;99.90;;;;;;5020357;28;20449;-37
2023/05/10 04:28:46;;;;;;;12.13;11.00;;;12.30;99.90;;;;;;5038535;28;20048;-44
2023/05/10 04:31:12;;;;;;;10.98;10.07;;;12.30;99.90;;;;;;5020658;28;20509;-37
2023/05/10 04:33:37;;;;;;;11.13;10.20;;;12.30;99.90;;;;;;5018916;28;20057;-42
2023/05/10 04:36:03;;;;;;;10.48;9.63;;;12.30;99.90;;;;;;5037616;28;20421;-47
2023/05/10 04:38:30;;;;;;;10.00;9.10;;;12.30;99.90;;;;;;5038689;28;20426;-45
2023/05/10 04:41:09;;;;;;;9.15;8.38;;;12.30;99.90;;;;;;5020179;28;20057;-37
2023/05/10 04:43:37;;;;;;;10.07;9.10;;;12.20;99.90;;;;;;5026026;28;20513;-42
2023/05/10 04:46:03;;;;;;;10.55;9.13;;;12.20;99.90;;;;;;5037275;28;20053;-42
2023/05/10 04:48:29;;;;;;;9.02;8.25;;;12.20;99.90;;;;;;5039046;28;20049;-41
2023/05/10 04:50:54;;;;;;;8.93;8.02;;;12.30;99.90;;;;;;5019621;28;20469;-44
2023/05/10 04:53:20;;;;;;;12.20;8.35;;;12.20;99.90;;;;;;5037396;28;20514;-37
2023/05/10 04:55:46;;;;;;;9.35;8.55;;;12.30;99.90;;;;;;5037233;28;20041;-43
2023/05/10 04:58:12;;;;;;;8.18;7.45;;;12.30;99.90;;;;;;5038006;28;20486;-43
2023/05/10 05:00:38;;;;;;;9.55;8.50;;;12.30;99.90;;;;;;5038134;28;20037;-40
2023/05/10 05:03:04;;;;;;;7.28;6.65;;;12.20;99.90;;;;;;5036975;28;20131;-44
2023/05/10 05:05:30;;;;;;;6.82;6.22;;;12.30;99.90;;;;;;5037240;28;20160;-39
2023/05/10 05:07:56;;;;;;;7.10;5.85;;;12.20;99.90;;;;;;5037484;28;20793;-43
2023/05/10 05:10:22;;;;;;;8.70;7.20;;;12.20;99.90;;;;;;5037590;28;20040;-41
2023/05/10 05:12:47;;;;;;;8.40;7.70;;;12.20;99.90;;;;;;5035685;28;20045;-38
2023/05/10 05:15:15;;;;;;;8.38;6.80;;;12.30;99.90;;;;;;5037166;28;20376;-38
2023/05/10 05:17:40;;;;;;;8.52;7.63;;;12.20;99.90;;;;;;5020272;28;20048;-37
2023/05/10 05:20:07;;;;;;;7.63;6.82;;;12.30;99.90;;;;;;5038274;28;20114;-40
2023/05/10 05:22:32;;;;;;;7.72;7.00;;;12.30;99.90;;;;;;5038638;28;20045;-43
2023/05/10 05:24:58;;;;;;;8.27;7.53;;;12.40;99.90;;;;;;5036824;28;20047;-40
2023/05/10 05:27:26;;;;;;;8.27;7.55;;;12.40;99.90;;;;;;5037190;28;20490;-40
2023/05/10 05:29:55;;;;;;;7.93;7.22;;;12.40;99.90;;;;;;5017610;28;20379;-43
2023/05/10 05:32:21;;;;;;;7.63;6.88;;;12.40;99.90;;;;;;5018586;28;20370;-42
2023/05/10 05:34:47;;;;;;;6.53;5.93;;;12.40;99.90;;;;;;5035484;28;20048;-42
2023/05/10 05:37:18;;;;;;;7.82;6.68;;;12.50;99.90;;;;;;5038017;28;20094;-42
2023/05/10 05:39:44;;;;;;;6.95;6.32;;;12.50;99.90;;;;;;5037492;28;20052;-38
2023/05/10 05:42:10;;;;;;;7.28;6.65;;;12.50;99.90;;;;;;5037603;28;20624;-43
2023/05/10 05:44:36;;;;;;;8.48;7.68;;;12.50;99.90;;;;;;5036686;28;20056;-42
2023/05/10 05:47:02;;;;;;;8.50;7.68;;;12.50;99.90;;;;;;5037230;28;20040;-41
2023/05/10 05:49:27;;;;;;;8.23;7.03;;;12.50;99.90;;;;;;5037440;28;20654;-42
2023/05/10 05:51:53;;;;;;;8.13;6.60;;;12.50;99.90;;;;;;5036454;28;20075;-43
2023/05/10 05:54:19;;;;;;;9.70;7.30;;;12.50;99.90;;;;;;5035477;28;20497;-42
2023/05/10 05:56:44;;;;;;;9.45;8.40;;;12.40;99.90;;;;;;5036852;28;20419;-41
2023/05/10 05:59:11;;;;;;;10.50;9.35;;;12.40;99.90;;;;;;5036345;28;20045;-47
2023/05/10 06:01:36;;;;;;;9.88;8.48;;;12.40;99.90;;;;;;5035666;28;20048;-40
2023/05/10 06:04:02;;;;;;;10.27;7.75;;;12.50;99.90;;;;;;5035296;28;20406;-40
2023/05/10 06:06:28;;;;;;;8.45;7.63;;;12.50;99.90;;;;;;5036736;28;20052;-40
2023/05/10 06:08:54;;;;;;;9.70;8.10;;;12.40;99.90;;;;;;5036171;28;20045;-44
2023/05/10 06:11:21;;;;;;;10.38;8.40;;;12.50;99.90;;;;;;5036519;28;20680;-44
2023/05/10 06:13:47;;;;;;;9.30;8.38;;;12.50;99.90;;;;;;5033815;28;20094;-42
2023/05/10 06:16:13;;;;;;;9.63;8.48;;;12.50;99.90;;;;;;5032763;28;20159;-40
2023/05/10 06:18:39;;;;;;;8.93;8.02;;;12.50;99.90;;;;;;5027715;28;20064;-39
2023/05/10 06:21:05;;;;;;;9.13;8.07;;;12.50;99.90;;;;;;5035723;28;20803;-39
2023/05/10 06:23:30;;;;;;;8.15;7.28;;;12.60;99.90;;;;;;5032695;28;20443;-46
2023/05/10 06:25:56;;;;;;;10.63;8.57;;;12.60;99.90;;;;;;5026330;28;20044;-41
2023/05/10 06:28:22;;;;;;;9.27;8.27;;;12.60;99.90;;;;;;5017734;28;20554;-39
2023/05/10 06:30:47;;;;;;;9.02;7.90;;;12.50;99.90;;;;;;5035659;28;20055;-42
2023/05/10 06:33:13;;;;;;;9.30;8.30;;;12.60;99.90;;;;;;5022541;28;20072;-41
2023/05/10 06:35:39;;;;;;;8.90;8.00;;;12.60;99.90;;;;;;5034470;28;20130;-43
2023/05/10 06:38:05;;;;;;;8.70;7.80;;;12.60;99.90;;;;;;5033085;28;20504;-41
2023/05/10 06:40:31;;;;;;;12.35;9.10;;;12.60;99.90;;;;;;5025610;28;20174;-44
2023/05/10 06:42:56;;;;;;;9.27;8.23;;;12.60;99.90;;;;;;5004781;28;20048;-40
2023/05/10 06:45:22;;;;;;;9.10;8.20;;;12.60;99.90;;;;;;5035519;28;20041;-42
2023/05/10 06:47:48;;;;;;;9.43;8.10;;;12.60;99.90;;;;;;5036068;28;20525;-40
2023/05/10 06:50:13;;;;;;;9.80;8.80;;;12.50;99.90;;;;;;5036215;28;20052;-45
2023/05/10 06:52:39;;;;;;;8.55;7.32;;;12.60;99.90;;;;;;5035020;28;20041;-41
2023/05/10 06:55:05;;;;;;;9.88;7.28;;;12.60;99.90;;;;;;5034935;28;20441;-39
2023/05/10 06:57:31;;;;;;;9.40;7.25;;;12.60;99.90;;;;;;5021889;28;20041;-47
2023/05/10 06:59:58;;;;;;;7.10;6.40;;;12.60;99.90;;;;;;5036037;28;20671;-37
2023/05/10 07:02:24;;;;;;;6.57;5.88;;;12.60;99.90;;;;;;5015262;28;20057;-44
2023/05/10 07:04:51;;;;;;;6.28;5.13;;;12.70;99.90;;;;;;5016304;28;20053;-46
2023/05/10 07:07:17;;;;;;;6.72;5.55;;;12.70;99.90;;;;;;5028339;28;20041;-44
2023/05/10 07:09:43;;;;;;;6.18;5.57;;;12.70;99.90;;;;;;5033564;28;20079;-40
2023/05/10 07:12:08;;;;;;;7.57;5.43;;;12.70;99.90;;;;;;5030634;28;20090;-45
2023/05/10 07:14:34;;;;;;;5.47;4.75;;;12.80;99.90;;;;;;5024657;28;20049;-44
2023/05/10 07:17:00;;;;;;;6.32;4.47;;;12.80;99.90;;;;;;5028134;28;20136;-40
2023/05/10 07:19:25;;;;;;;5.15;4.65;;;12.70;99.90;;;;;;5015767;28;20225;-39
2023/05/10 07:21:51;;;;;;;4.35;3.95;;;12.70;99.90;;;;;;5015163;28;20081;-45
2023/05/10 07:24:17;;;;;;;4.63;4.22;;;12.80;99.90;;;;;;5013507;28;20418;-39
2023/05/10 07:26:43;;;;;;;4.90;4.40;;;12.80;99.90;;;;;;5021192;28;20687;-40
2023/05/10 07:29:08;;;;;;;4.97;4.03;;;12.80;99.90;;;;;;5016266;28;20055;-47
2023/05/10 07:31:34;;;;;;;7.47;3.90;;;12.90;99.90;;;;;;5023837;28;20052;-46
2023/05/10 07:34:00;;;;;;;5.45;3.80;;;12.90;99.90;;;;;;5026016;28;20443;-40
2023/05/10 07:36:26;;;;;;;5.28;3.80;;;12.90;99.90;;;;;;5035020;28;20477;-41
2023/05/10 07:38:51;;;;;;;4.25;3.85;;;12.90;99.90;;;;;;5014830;28;20052;-42
2023/05/10 07:41:17;;;;;;;4.78;3.83;;;12.90;99.90;;;;;;5035413;28;20501;-38
2023/05/10 07:43:43;;;;;;;4.90;3.75;;;12.90;99.90;;;;;;5010964;28;20136;-45
2023/05/10 07:46:10;;;;;;;4.30;3.80;;;12.90;99.90;;;;;;5024231;28;20212;-38
2023/05/10 07:48:37;;;;;;;5.38;4.00;;;12.90;99.90;;;;;;5035025;28;20099;-38
2023/05/10 07:51:02;;;;;;;3.75;3.40;;;12.90;99.90;;;;;;5015756;28;20506;-41
2023/05/10 07:53:28;;;;;;;4.30;3.63;;;12.80;99.90;;;;;;5013859;28;20037;-40
2023/05/10 07:55:57;;;;;;;6.43;4.20;;;12.90;99.90;;;;;;5028931;28;20051;-42
2023/05/10 07:58:24;;;;;;;6.47;3.83;;;12.90;99.90;;;;;;5036603;28;20040;-47
2023/05/10 08:00:49;;;;;;;4.85;4.13;;;12.90;99.90;;;;;;5037424;28;20041;-43
2023/05/10 08:03:15;;;;;;;4.13;3.65;;;12.90;99.90;;;;;;5036163;28;20048;-43
2023/05/10 08:05:41;;;;;;;4.35;3.95;;;12.90;99.90;;;;;;5037912;28;20044;-40
2023/05/10 08:08:07;;;;;;;5.93;4.20;;;12.90;99.90;;;;;;5016890;28;20049;-44
2023/05/10 08:10:33;;;;;;;4.97;4.43;;;12.90;99.90;;;;;;5017758;28;20044;-38
2023/05/10 08:12:58;;;;;;;4.93;4.07;;;12.90;99.90;;;;;;5020963;28;20106;-41
2023/05/10 08:15:25;;;;;;;5.38;4.25;;;13.00;99.90;;;;;;5032981;28;20044;-40
2023/05/10 08:17:52;;;;;;;5.07;4.18;;;12.90;99.90;;;;;;5013690;28;20341;-42
2023/05/10 08:20:18;;;;;;;4.70;4.30;;;13.00;99.90;;;;;;5019069;28;20040;-41
2023/05/10 08:22:45;;;;;;;5.30;4.60;;;13.20;99.90;;;;;;5026096;28;20053;-41
2023/05/10 08:25:11;;;;;;;4.43;4.03;;;13.30;99.90;;;;;;5034759;28;20107;-37
2023/05/10 08:27:37;;;;;;;4.47;3.85;;;13.40;99.90;;;;;;5038281;28;20041;-47
2023/05/10 08:30:03;;;;;;;4.57;3.92;;;13.50;99.90;;;;;;5036976;28;20211;-41
2023/05/10 08:32:29;;;;;;;6.47;4.43;;;13.70;99.90;;;;;;5038301;28;20483;-43
2023/05/10 08:34:55;;;;;;;4.90;4.50;;;13.90;99.90;;;;;;5036894;28;20049;-47
2023/05/10 08:37:22;;;;;;;4.90;4.50;;;14.10;99.90;;;;;;5038229;28;20152;-40
2023/05/10 08:39:48;;;;;;;4.65;3.85;;;14.20;99.90;;;;;;5026019;28;20073;-42
2023/05/10 08:42:20;;;;;;;4.80;4.28;;;14.20;99.90;;;;;;5032120;28;20514;-43
2023/05/10 08:44:47;;;;;;;5.03;4.20;;;14.20;99.90;;;;;;5036365;28;20411;-38
2023/05/10 08:47:17;;;;;;;4.63;4.22;;;14.20;99.90;;;;;;5036620;28;20116;-41
2023/05/10 08:49:47;;;;;;;4.95;4.10;;;14.30;99.90;;;;;;5035513;28;20156;-41
2023/05/10 08:52:16;;;;;;;5.70;4.18;;;14.30;99.90;;;;;;5034663;28;20045;-40
2023/05/10 08:54:42;;;;;;;4.63;4.13;;;14.30;99.90;;;;;;5022304;28;20053;-48
2023/05/10 08:57:07;;;;;;;5.35;4.72;;;14.30;99.90;;;;;;5019571;28;20142;-45
2023/05/10 08:59:33;;;;;;;5.50;4.95;;;14.40;99.90;;;;;;5036300;28;20040;-41
2023/05/10 09:01:59;;;;;;;6.25;5.00;;;14.60;99.90;;;;;;5037874;28;20048;-37
2023/05/10 09:04:25;;;;;;;6.22;5.63;;;14.60;99.90;;;;;;5034588;28;20053;-40
2023/05/10 09:06:51;;;;;;;5.53;4.97;;;14.90;99.90;;;;;;5019699;28;20147;-42
2023/05/10 09:09:19;;;;;;;7.80;5.32;;;15.00;99.90;;;;;;5019721;28;20229;-42
2023/05/10 09:11:45;;;;;;;6.68;5.63;;;15.20;99.90;;;;;;5037357;28;20048;-41
2023/05/10 09:14:13;;;;;;;6.97;6.28;;;15.40;99.90;;;;;;5035906;28;20053;-43
2023/05/10 09:16:39;;;;;;;5.90;5.32;;;15.40;99.90;;;;;;5035831;28;20048;-42
2023/05/10 09:19:06;;;;;;;6.82;5.47;;;15.50;99.90;;;;;;5037220;28;20069;-47
2023/05/10 09:21:35;;;;;;;8.68;5.50;;;15.40;99.90;;;;;;5037237;28;20053;-43
2023/05/10 09:24:04;;;;;;;6.25;5.00;;;15.50;99.90;;;;;;5035972;28;20414;-44
2023/05/10 09:26:30;;;;;;;6.13;5.53;;;15.60;99.90;;;;;;5036547;28;20114;-42
2023/05/10 09:28:58;;;;;;;7.35;6.35;;;15.50;99.90;;;;;;5014591;28;20066;-36
2023/05/10 09:31:42;;;;;;;6.18;5.45;;;15.50;99.90;;;;;;5036430;28;20095;-45
2023/05/10 09:34:08;;;;;;;6.63;6.03;;;15.50;99.90;;;;;;5034707;28;20676;-40
2023/05/10 09:36:33;;;;;;;6.30;5.70;;;15.50;99.90;;;;;;5037440;28;20076;-43
2023/05/10 09:38:59;;;;;;;6.38;5.78;;;15.60;99.90;;;;;;5037360;28;20049;-40
2023/05/10 09:41:25;;;;;;;7.63;6.32;;;15.50;99.90;;;;;;5033056;28;20095;-38
2023/05/10 09:43:55;;;;;;;6.72;5.95;;;15.40;99.90;;;;;;5008158;28;20110;-44
2023/05/10 09:46:22;;;;;;;6.38;5.60;;;15.60;99.90;;;;;;5018695;28;20056;-43
2023/05/10 09:48:48;;;;;;;8.45;6.00;;;15.60;99.90;;;;;;5037881;28;20076;-43
2023/05/10 09:51:21;;;;;;;5.82;5.22;;;15.50;99.90;;;;;;5038814;28;20049;-41
2023/05/10 09:53:47;;;;;;;6.32;5.72;;;15.50;99.90;;;;;;5035608;28;20613;-40
2023/05/10 09:56:14;;;;;;;7.40;5.60;;;15.50;99.90;;;;;;5017875;28;20048;-45
2023/05/10 09:58:40;;;;;;;6.20;5.53;;;15.40;99.90;;;;;;5036472;28;20053;-45
2023/05/10 10:01:11;;;;;;;6.05;5.47;;;15.50;99.90;;;;;;5035311;28;20049;-40
2023/05/10 10:03:42;;;;;;;7.22;6.18;;;15.50;99.90;;;;;;5030552;28;20154;-48
2023/05/10 10:06:08;;;;;;;7.60;6.15;;;15.60;99.90;;;;;;5016713;28;20453;-40
2023/05/10 10:08:34;;;;;;;6.70;6.00;;;15.80;99.90;;;;;;5036241;28;20119;-43
2023/05/10 10:11:01;;;;;;;7.20;5.88;;;15.70;99.90;;;;;;5036550;28;20577;-40
2023/05/10 10:13:27;;;;;;;6.53;5.72;;;15.70;99.90;;;;;;5035969;28;20122;-44
2023/05/10 10:15:54;;;;;;;7.43;6.20;;;15.60;99.90;;;;;;5023164;28;20487;-42
2023/05/10 10:18:26;;;;;;;6.78;5.15;;;15.60;99.90;;;;;;5036306;28;20102;-41
2023/05/10 10:20:53;;;;;;;5.70;4.90;;;15.60;99.90;;;;;;5036596;28;20538;-39
2023/05/10 10:23:19;;;;;;;6.38;4.85;;;15.70;99.90;;;;;;5029145;28;20459;-41
2023/05/10 10:25:48;;;;;;;6.93;5.15;;;15.80;99.90;;;;;;5028257;28;20052;-40
2023/05/10 10:28:55;;;;;;;5.20;4.70;;;15.90;99.90;;;;;;5022190;28;20592;-42
2023/05/10 10:31:36;;;;;;;4.32;3.92;;;16.10;99.90;;;;;;4973341;28;20554;-39
2023/05/10 10:34:12;;;;;;;6.00;4.43;;;16.20;99.90;;;;;;4962052;28;20508;-46
2023/05/10 10:36:46;;;;;;;5.20;4.70;;;16.30;99.90;;;;;;4953078;28;20058;-40
2023/05/10 10:39:12;;;;;;;4.72;4.32;;;16.40;99.90;;;;;;4965317;28;20053;-37
2023/05/10 10:41:48;;;;;;;5.50;5.00;;;16.50;99.90;;;;;;4968698;28;20062;-44
2023/05/10 10:44:36;;;;;;;6.22;4.22;;;16.50;99.90;;;;;;4971738;28;20054;-41
2023/05/10 10:47:11;;;;;;;6.03;5.30;;;16.60;99.90;;;;;;4973325;28;20586;-40
2023/05/10 10:49:40;;;;;;;5.93;5.32;;;16.60;99.90;;;;;;4970572;28;20516;-48
2023/05/10 10:52:28;;;;;;;6.07;5.47;;;16.60;99.90;;;;;;4958160;28;20050;-39
2023/05/10 10:55:01;;;;;;;7.65;5.78;;;16.50;99.90;;;;;;4966992;28;20402;-42
2023/05/10 10:57:29;;;;;;;8.63;5.50;;;16.40;99.90;;;;;;4972884;28;20514;-42
2023/05/10 11:00:24;;;;;;;6.78;5.85;;;16.40;99.90;;;;;;4972548;28;20061;-37
2023/05/10 11:02:54;;;;;;;6.90;6.20;;;16.30;99.90;;;;;;4973150;28;20435;-39
2023/05/10 11:05:46;;;;;;;9.88;8.27;;;16.30;99.90;;;;;;4972969;28;20153;-45
2023/05/10 11:08:16;;;;;;;12.53;10.97;;;16.10;99.90;;;;;;4997839;28;20053;-39
2023/05/10 11:11:11;;;;;;;14.40;11.60;;;15.90;99.90;;;;;;5021657;28;20303;-45
2023/05/10 11:13:45;;;;;;;16.90;11.95;;;15.80;99.90;;;;;;5030034;28;20053;-48
2023/05/10 11:16:17;;;;;;;13.95;12.40;;;15.60;99.90;;;;;;5024447;28;20049;-41
2023/05/10 11:19:02;;;;;;;12.60;11.23;;;15.40;99.90;;;;;;5034702;28;20049;-40
2023/05/10 11:21:28;;;;;;;17.15;12.57;;;15.40;99.90;;;;;;5029896;28;20155;-48
2023/05/10 11:23:59;;;;;;;13.30;11.82;;;15.30;99.90;;;;;;5031095;28;20907;-46
2023/05/10 11:26:29;;;;;;;15.18;12.77;;;15.40;99.90;;;;;;5004747;28;20045;-45
2023/05/10 11:28:55;;;;;;;12.63;11.32;;;15.40;99.90;;;;;;5014575;28;20179;-40
2023/05/10 11:31:22;;;;;;;12.75;10.88;;;15.50;99.90;;;;;;5032100;28;20067;-45
2023/05/10 11:33:48;;;;;;;12.95;11.52;;;15.50;99.90;;;;;;5019460;28;20049;-42
2023/05/10 11:36:19;;;;;;;13.55;11.80;;;15.50;99.90;;;;;;5039253;28;20043;-44
2023/05/10 11:38:46;;;;;;;12.65;10.27;;;15.50;99.90;;;;;;5039939;28;20545;-39
2023/05/10 11:41:12;;;;;;;12.00;10.77;;;15.50;99.90;;;;;;5024327;28;20053;-43
2023/05/10 11:43:41;;;;;;;13.02;10.90;;;15.60;99.90;;;;;;5040948;28;20049;-36
2023/05/10 11:46:10;;;;;;;12.27;10.98;;;15.50;99.90;;;;;;5040025;28;20545;-46
2023/05/10 11:48:36;;;;;;;13.15;11.52;;;15.60;99.90;;;;;;5042688;28;20088;-44
2023/05/10 11:51:02;;;;;;;13.07;11.77;;;15.70;99.90;;;;;;5024113;28;20100;-43
2023/05/10 11:53:32;;;;;;;15.90;11.90;;;15.80;99.90;;;;;;5041541;28;20052;-37
2023/05/10 11:56:09;;;;;;;13.65;11.50;;;15.90;99.90;;;;;;5041980;28;20558;-45
2023/05/10 11:58:36;;;;;;;12.13;10.82;;;15.90;99.90;;;;;;5007146;28;20493;-44
2023/05/10 12:01:04;;;;;;;12.40;11.20;;;15.80;99.90;;;;;;5041902;28;20138;-46
2023/05/10 12:03:30;;;;;;;11.50;10.25;;;15.90;99.90;;;;;;5023075;28;20044;-47
2023/05/10 12:05:57;;;;;;;13.00;10.82;;;15.90;99.90;;;;;;5041442;28;20041;-43
2023/05/10 12:08:27;;;;;;;12.15;10.85;;;15.90;99.90;;;;;;5042056;28;20060;-44
2023/05/10 12:11:03;;;;;;;12.63;11.27;;;16.00;99.90;;;;;;5041487;28;20106;-44
2023/05/10 12:13:29;;;;;;;13.30;11.10;;;16.10;99.90;;;;;;5022578;28;20558;-41
2023/05/10 12:15:58;;;;;;;11.82;10.70;;;16.10;99.90;;;;;;5041523;28;20039;-44
2023/05/10 12:18:25;;;;;;;11.15;10.05;;;16.00;99.90;;;;;;5041338;28;20086;-37
2023/05/10 12:20:54;;;;;;;13.02;11.38;;;16.10;99.90;;;;;;5041643;28;20288;-41
2023/05/10 12:23:20;;;;;;;12.23;10.93;;;16.10;99.90;;;;;;5041088;28;20048;-44
2023/05/10 12:25:46;;;;;;;12.27;10.88;;;16.00;99.90;;;;;;5041466;28;20033;-39
2023/05/10 12:28:11;;;;;;;13.43;11.38;;;15.90;99.90;;;;;;5040832;28;20391;-41
2023/05/10 12:30:38;;;;;;;12.93;11.63;;;15.70;99.90;;;;;;5022776;28;20056;-43
2023/05/10 12:33:14;;;;;;;12.55;11.20;;;15.70;99.90;;;;;;5040491;28;21140;-47
2023/05/10 12:35:45;;;;;;;13.35;11.85;;;15.60;99.90;;;;;;5024337;28;20459;-40
2023/05/10 12:38:42;;;;;;;12.88;11.65;;;15.60;99.90;;;;;;5041840;28;20055;-47
2023/05/10 12:41:10;;;;;;;14.70;11.98;;;15.60;99.90;;;;;;4974018;28;20058;-43
2023/05/10 12:43:36;;;;;;;13.02;11.75;;;15.70;99.90;;;;;;4963968;28;20448;-41